Latest Weather Observations for Sheffield

IDT60801

Issued at 11:31 am EDT Monday 18 February 2019 (issued every 10 minutes, with the page automatically refreshed every 10 minutes)

About weather observations | Map of weather stations | Latest weather observations for TAS | Other Formats
Station Details ID: 091291 Name: SHEFFIELD SCHOOL FARM Lat: -41.39 Lon: 146.32 Height: 294.2 m
Data from the previous 72 hours. | See also: Recent months at Sheffield
Date/Time
EDT
Temp
°C
App
Temp
°C
Dew
Point
°C
Rel
Hum
%
Delta-T
°C
Wind Press
QNH
hPa
Press
MSL
hPa
Rain since
9am
mm
Dir  Spd
km/h
Gust
km/h
Spd
kts
Gust
kts
18/11:30am 18.4 13.3 9.2 55 4.9 WNW 26 35 14 19 1002.1 1001.4 0.0
18/11:00am 17.8 13.5 9.4 58 4.5 W 22 35 12 19 1002.5 1001.8 0.0
18/10:30am 18.7 14.6 11.3 62 4.1 WNW 24 35 13 19 1002.8 1002.1 0.0
18/10:00am 17.3 12.0 11.1 67 3.4 WNW 30 44 16 24 1002.8 1002.1 0.0
18/09:54am 17.2 12.0 11.5 69 3.1 WNW 30 43 16 23 1002.7 1002.0 0.0
18/09:30am 17.3 15.1 13.2 77 2.3 WNW 17 22 9 12 1002.8 1002.1 0.0
18/09:00am 16.8 14.6 13.3 80 2.0 WNW 17 24 9 13 1002.9 1002.2 0.4
18/08:30am 15.6 13.9 12.5 82 1.7 WNW 13 20 7 11 1003.3 1002.7 0.4
18/08:00am 15.3 14.4 13.7 90 0.9 NW 11 15 6 8 1003.5 1002.9 0.4
18/07:30am 15.0 14.0 14.5 97 0.3 NW 13 17 7 9 1003.7 1003.1 0.4
18/07:00am 14.7 14.1 14.5 99 0.1 NW 11 13 6 7 1003.8 1003.2 0.4
18/06:30am 14.7 14.1 14.5 99 0.1 NW 11 15 6 8 1003.8 1003.2 0.4
18/06:00am 14.6 14.7 14.4 99 0.1 NW 7 9 4 5 1003.8 1003.2 0.4
18/05:30am 14.6 14.7 14.4 99 0.1 WNW 7 9 4 5 1003.9 1003.3 0.4
18/05:00am 14.6 14.7 14.4 99 0.1 NNW 7 9 4 5 1004.0 1003.4 0.2
18/04:30am 14.5 15.1 14.3 99 0.1 NW 4 6 2 3 1004.3 1003.7 0.2
18/04:00am 14.3 14.5 14.1 99 0.1 WNW 6 9 3 5 1004.4 1003.8 0.2
18/03:30am 14.4 14.4 14.2 99 0.1 NW 7 11 4 6 1005.3 1004.6 0.2
18/03:00am 14.4 14.0 14.2 99 0.1 NW 9 13 5 7 1005.6 1004.9 0.2
18/02:30am 14.3 13.5 14.1 99 0.1 NNW 11 17 6 9 1006.0 1005.3 0.2
18/02:00am 14.4 14.0 14.2 99 0.1 NNW 9 13 5 7 1006.3 1005.7 0.2
18/01:30am 14.2 14.1 14.0 99 0.1 N 7 11 4 6 1006.3 1005.7 0.2
18/01:00am 14.0 13.5 13.8 99 0.1 NNW 9 13 5 7 1006.9 1006.3 0.2
18/12:30am 14.1 13.3 13.9 99 0.1 NNW 11 15 6 8 1007.2 1006.6 0.2
18/12:00am 14.5 13.4 14.3 99 0.1 NNW 13 15 7 8 1007.3 1006.7 0.2
 
Date/Time
EDT
Temp
°C
App
Temp
°C
Dew
Point
°C
Rel
Hum
%
Delta-T
°C
Wind Press
QNH
hPa
Press
MSL
hPa
Rain since
9am
mm
Dir  Spd
km/h
Gust
km/h
Spd
kts
Gust
kts
17/11:30pm 14.7 13.6 14.4 98 0.2 NNW 13 17 7 9 1007.6 1007.0 0.2
17/11:00pm 14.9 13.8 14.4 97 0.3 NNW 13 19 7 10 1008.1 1007.5 0.2
17/10:30pm 15.0 13.5 14.2 95 0.5 NNW 15 19 8 10 1008.4 1007.7 0.2
17/10:00pm 15.3 13.5 14.5 95 0.5 NW 17 24 9 13 1008.6 1007.9 0.2
17/09:30pm 15.3 13.5 14.5 95 0.5 NNW 17 22 9 12 1008.5 1007.8 0.2
17/09:00pm 15.3 13.0 14.2 93 0.6 NNW 19 24 10 13 1007.9 1007.3 0.2
17/08:30pm 15.3 13.0 14.0 92 0.7 NNW 19 26 10 14 1007.8 1007.2 0.2
17/08:00pm 15.8 13.3 14.0 89 1.0 NNW 20 30 11 16 1007.7 1007.1 0.2
17/07:30pm 16.7 14.2 14.0 84 1.6 NNW 20 26 11 14 1007.7 1007.1 0.2
17/07:00pm 16.8 14.2 13.7 82 1.8 NNW 20 26 11 14 1007.6 1007.0 0.2
17/06:30pm 18.2 14.9 14.1 77 2.4 NNW 24 32 13 17 1007.7 1007.1 0.2
17/06:00pm 18.6 16.1 14.1 75 2.6 NNW 20 28 11 15 1007.7 1007.1 0.2
17/05:30pm 19.1 16.7 14.4 74 2.8 NNW 20 30 11 16 1007.9 1007.3 0.2
17/05:00pm 19.5 17.5 13.9 70 3.3 NNW 17 26 9 14 1008.1 1007.5 0.2
17/04:30pm 19.1 17.7 13.5 70 3.2 N 13 17 7 9 1008.2 1007.6 0.2
17/04:00pm 18.3 17.2 14.2 77 2.4 NNW 13 17 7 9 1008.7 1008.0 0.2
17/03:30pm 17.9 16.2 12.4 70 3.1 NW 13 19 7 10 1009.3 1008.7 0.0
17/03:00pm 19.6 17.6 11.4 59 4.6 NW 13 20 7 11 1009.5 1008.9 0.0
17/02:30pm 20.6 18.9 11.2 55 5.2 NW 11 17 6 9 1009.8 1009.2 0.0
17/02:00pm 19.6 16.7 12.8 65 3.9 NNW 20 26 11 14 1010.2 1009.6 0.0
17/01:30pm 20.2 16.6 11.9 59 4.7 NNW 22 30 12 16 1010.2 1009.6 0.0
17/01:00pm 19.7 16.5 11.2 58 4.7 NNW 19 26 10 14 1010.5 1009.9 0.0
17/12:30pm 19.9 17.7 10.9 56 5.0 NNW 13 17 7 9 1010.9 1010.3 0.0
17/12:00pm 20.1 17.1 10.8 55 5.1 NNW 17 26 9 14 1011.1 1010.5 0.0
17/11:30am 20.1 18.0 11.3 57 4.9 NNW 13 22 7 12 1011.1 1010.5 0.0
17/11:00am 18.7 17.3 11.0 61 4.2 NNW 9 13 5 7 1011.2 1010.6 0.0
17/10:30am 17.4 16.5 10.8 65 3.6 NNW 6 11 3 6 1011.5 1010.9 0.0
17/10:00am 15.9 15.4 10.7 71 2.8 WNW 4 9 2 5 1011.7 1011.1 0.0
17/09:30am 14.7 13.7 10.3 75 2.3 NW 6 9 3 5 1011.6 1011.0 0.0
17/09:00am 13.4 12.8 10.4 82 1.6 N 4 6 2 3 1011.7 1011.1 0.0
17/08:30am 12.6 13.1 11.7 94 0.5 CALM 0 0 0 0 1011.6 1011.0 0.0
17/08:00am 10.8 11.0 10.6 99 0.1 CALM 0 0 0 0 1011.5 1010.9 0.0
17/07:30am 9.9 9.9 9.8 99 0.1 CALM 0 0 0 0 1011.4 1010.8 0.0
17/07:00am 9.6 9.5 9.5 99 0.1 CALM 0 0 0 0 1011.2 1010.6 0.0
17/06:30am 8.7 8.3 8.3 97 0.2 CALM 0 0 0 0 1011.1 1010.5 0.0
17/06:00am 9.3 9.0 8.8 97 0.2 CALM 0 4 0 2 1011.3 1010.7 0.0
17/05:30am 9.7 8.8 9.2 97 0.3 WSW 4 4 2 2 1011.2 1010.6 0.0
17/05:00am 9.8 9.3 9.2 96 0.3 WSW 2 4 1 2 1011.3 1010.7 0.0
17/04:30am 10.3 9.5 9.7 96 0.3 WSW 4 7 2 4 1011.3 1010.7 0.0
17/04:00am 10.7 10.7 9.9 95 0.4 CALM 0 0 0 0 1011.5 1010.9 0.0
17/03:30am 10.9 11.0 10.0 94 0.5 CALM 0 0 0 0 1012.0 1011.3 0.0
17/03:00am 11.1 11.1 9.9 92 0.6 CALM 0 0 0 0 1011.8 1011.2 0.0
17/02:30am 11.7 11.1 10.4 92 0.7 NW 4 6 2 3 1012.3 1011.7 0.0
17/02:00am 11.8 11.4 11.0 95 0.4 WNW 4 6 2 3 1012.7 1012.1 0.0
17/01:30am 12.0 11.1 11.5 97 0.3 WNW 7 9 4 5 1013.0 1012.4 0.0
17/01:00am 12.3 11.7 11.8 97 0.3 NW 6 7 3 4 1013.3 1012.7 0.0
17/12:30am 12.9 13.3 12.6 98 0.2 WNW 2 4 1 2 1013.6 1013.0 0.0
17/12:00am 13.4 13.6 12.9 97 0.3 WSW 4 4 2 2 1013.7 1013.1 0.0
 
Date/Time
EDT
Temp
°C
App
Temp
°C
Dew
Point
°C
Rel
Hum
%
Delta-T
°C
Wind Press
QNH
hPa
Press
MSL
hPa
Rain since
9am
mm
Dir  Spd
km/h
Gust
km/h
Spd
kts
Gust
kts
16/11:30pm 13.6 14.5 13.0 96 0.3 CALM 0 0 0 0 1013.9 1013.3 0.0
16/11:00pm 13.4 13.0 12.5 94 0.5 NW 6 7 3 4 1014.3 1013.7 0.0
16/10:30pm 13.9 13.6 12.8 93 0.6 NNW 6 7 3 4 1014.3 1013.7 0.0
16/10:00pm 14.2 14.3 12.8 91 0.8 NNW 4 6 2 3 1014.9 1014.3 0.0
16/09:30pm 14.6 13.9 13.3 92 0.7 NW 9 11 5 6 1014.9 1014.3 0.0
16/09:00pm 14.8 14.7 13.2 90 0.9 N 6 9 3 5 1014.7 1014.1 0.0
16/08:30pm 15.4 15.1 13.4 88 1.1 NNW 7 11 4 6 1014.8 1014.2 0.0
16/08:00pm 16.0 15.0 13.5 85 1.4 NNW 11 15 6 8 1014.9 1014.3 0.0
16/07:30pm 16.5 14.9 12.8 79 2.1 NNW 13 20 7 11 1015.0 1014.5 0.0
16/07:00pm 17.3 15.5 12.2 72 2.8 N 13 17 7 9 1014.8 1014.2 0.0
16/06:30pm 18.4 16.4 12.8 70 3.2 NNW 15 20 8 11 1015.1 1014.6 0.0
16/06:00pm 19.0 17.5 13.0 68 3.4 NNW 13 20 7 11 1015.2 1014.7 0.0
16/05:30pm 19.3 18.5 13.0 67 3.6 NNW 9 15 5 8 1015.3 1014.8 0.0
16/05:00pm 19.8 19.4 13.0 65 3.9 NNW 7 13 4 7 1015.7 1015.1 0.0
16/04:30pm 19.6 18.8 12.8 65 3.9 N 9 15 5 8 1016.0 1015.4 0.0
16/04:00pm 18.5 16.9 12.9 70 3.2 NNW 13 17 7 9 1016.4 1015.8 0.0
16/03:30pm 18.1 16.7 13.4 74 2.7 NW 13 19 7 10 1016.9 1016.3 0.0
16/03:00pm 18.0 15.9 13.5 75 2.6 NW 17 22 9 12 1017.1 1016.5 0.0
16/02:30pm 19.4 17.8 13.8 70 3.3 N 15 20 8 11 1017.4 1016.8 0.0
16/02:00pm 17.6 14.5 13.5 77 2.3 NNW 22 28 12 15 1017.7 1017.1 0.0
16/01:30pm 18.3 15.4 13.0 71 3.0 NNW 20 28 11 15 1018.0 1017.5 0.0
16/01:00pm 19.1 17.2 11.9 63 4.0 N 13 19 7 10 1018.3 1017.8 0.0
16/12:30pm 19.0 17.5 13.0 68 3.4 N 13 20 7 11 1018.9 1018.4 0.0
16/12:00pm 18.4 17.7 13.1 71 3.0 NNE 9 19 5 10 1019.4 1018.8 0.0
16/11:30am 18.0 17.0 13.5 75 2.6 NNE 11 19 6 10 1019.8 1019.2 0.0
16/11:00am 18.6 18.2 14.1 75 2.6 ENE 9 13 5 7 1019.9 1019.3 0.0
16/10:30am 17.5 17.7 14.2 81 1.9 E 6 9 3 5 1020.4 1019.8 0.0
16/10:00am 16.4 16.6 14.2 87 1.3 SE 6 9 3 5 1020.6 1020.0 0.0
16/09:30am 15.4 15.3 13.8 90 0.9 SE 7 9 4 5 1020.8 1020.2 0.0
16/09:00am 14.5 13.7 13.9 96 0.3 SE 11 15 6 8 1020.8 1020.2 0.4
16/08:30am 14.1 14.0 13.8 98 0.2 SSE 7 9 4 5 1020.9 1020.4 0.4
16/08:00am 13.9 13.7 13.6 98 0.2 SE 7 9 4 5 1020.7 1020.1 0.2
16/07:30am 13.9 13.8 13.4 97 0.3 SE 6 9 3 5 1020.7 1020.1 0.0
16/07:00am 13.8 13.0 13.0 95 0.4 SE 9 13 5 7 1020.9 1020.4 0.0
16/06:30am 13.9 13.1 12.8 93 0.6 SE 9 13 5 7 1020.8 1020.2 0.0
16/06:00am 13.6 13.1 12.5 93 0.6 SE 7 11 4 6 1021.0 1020.5 0.0
16/05:30am 13.5 13.2 12.6 94 0.5 SE 6 9 3 5 1021.3 1020.8 0.0
16/05:00am 13.6 13.0 12.3 92 0.7 SE 7 9 4 5 1021.4 1020.9 0.0
16/04:30am 13.7 12.2 11.9 89 1.0 SE 11 15 6 8 1021.8 1021.3 0.0
16/04:00am 13.5 13.1 11.2 86 1.2 ESE 4 11 2 6 1022.2 1021.7 0.0
16/03:30am 14.1 13.4 11.3 83 1.5 SSE 6 9 3 5 1022.3 1021.8 0.0
16/03:00am 13.5 13.2 11.6 88 1.0 SE 4 7 2 4 1022.5 1022.0 0.0
16/02:30am 13.6 13.3 11.3 86 1.2 SE 4 6 2 3 1023.0 1022.4 0.0
16/02:00am 14.2 14.7 11.5 84 1.5 CALM 0 0 0 0 1023.3 1022.7 0.0
16/01:30am 13.9 14.3 11.4 85 1.4 CALM 0 0 0 0 1023.6 1023.0 0.0
16/01:00am 13.8 13.8 11.3 85 1.3 SSE 2 6 1 3 1023.7 1023.1 0.0
16/12:30am 13.8 14.1 11.0 83 1.5 CALM 0 0 0 0 1023.9 1023.4 0.0
16/12:00am 13.9 14.1 10.7 81 1.7 CALM 0 0 0 0 1024.0 1023.5 0.0
 
Date/Time
EDT
Temp
°C
App
Temp
°C
Dew
Point
°C
Rel
Hum
%
Delta-T
°C
Wind Press
QNH
hPa
Press
MSL
hPa
Rain since
9am
mm
Dir  Spd
km/h
Gust
km/h
Spd
kts
Gust
kts
15/11:30pm 13.8 13.5 10.2 79 1.9 ENE 2 7 1 4 1024.2 1023.7 0.0
15/11:00pm 13.8 13.9 10.2 79 1.9 CALM 0 6 0 3 1024.4 1023.9 0.0
15/10:30pm 13.8 13.7 9.6 76 2.2 CALM 0 0 0 0 1024.5 1024.0 0.0
15/10:00pm 14.7 14.7 9.9 73 2.5 CALM 0 6 0 3 1024.4 1023.9 0.0
15/09:30pm 15.2 13.8 9.6 69 2.9 N 7 13 4 7 1024.1 1023.6 0.0
15/09:00pm 14.8 14.0 9.6 71 2.7 NNW 4 7 2 4 1023.9 1023.4 0.0
15/08:30pm 15.3 13.9 9.4 68 3.1 N 7 13 4 7 1023.6 1023.0 0.0
15/08:00pm 16.0 14.1 9.2 64 3.5 N 9 17 5 9 1023.5 1022.9 0.0
15/07:30pm 17.1 14.0 9.0 59 4.3 N 15 20 8 11 1023.1 1022.5 0.0
15/07:00pm 18.0 14.9 8.8 55 4.8 N 15 20 8 11 1022.8 1022.2 0.0
15/06:30pm 18.6 15.1 8.8 53 5.2 NNE 17 22 9 12 1022.7 1022.1 0.0
15/06:00pm 19.9 17.2 10.3 54 5.2 NNE 15 22 8 12 1022.4 1021.9 0.0
15/05:30pm 20.2 16.6 10.0 52 5.6 NNW 19 24 10 13 1022.2 1021.7 0.0
15/05:00pm 20.3 16.6 9.5 50 5.8 NNW 19 24 10 13 1022.0 1021.5 0.0
15/04:30pm 21.4 17.8 10.6 50 6.0 N 20 28 11 15 1021.9 1021.4 0.0
15/04:00pm 22.1 18.8 9.6 45 6.8 NNW 17 26 9 14 1021.8 1021.3 0.0
15/03:30pm 23.1 21.0 11.2 47 6.7 NNW 13 24 7 13 1021.9 1021.4 0.0
15/03:00pm 23.2 22.2 7.3 36 8.4 WSW 2 13 1 7 1022.2 1021.7 0.0
15/02:30pm 22.5 21.2 7.5 38 7.9 ESE 4 9 2 5 1022.3 1021.8 0.0
15/02:00pm 22.0 19.4 6.3 36 8.0 ESE 9 17 5 9 1022.4 1021.9 0.0
15/01:30pm 21.1 19.0 5.9 37 7.7 E 6 13 3 7 1022.7 1022.1 0.0
15/01:00pm 20.4 18.5 6.7 41 7.0 SE 6 11 3 6 1022.9 1022.3 0.0
15/12:30pm 20.1 19.1 8.8 48 6.0 E 4 9 2 5 1023.2 1022.6 0.0
15/12:00pm 18.9 17.1 8.0 49 5.7 ESE 7 13 4 7 1023.4 1022.8 0.0

Other Formats:

Comma delimited format used in spreadsheet applications
http://www.bom.gov.au/fwo/IDT60801/IDT60801.94955.axf

JavaScript Object Notation format (JSON) in row-major order
http://www.bom.gov.au/fwo/IDT60801/IDT60801.94955.json